Time;durP1;ratioP1;P1;durP2;ratioP2;P2;SDS_P1;SDS_P2;PMS_P1;PMS_P2;Temp;Humidity;BMP_temperature;BMP_pressure;BME280_temperature;BME280_humidity;BME280_pressure;Samples;Min_cycle;Max_cycle;Signal;HPM_P1;HPM_P2
2022/05/22 00:01:53;;;;;;;4.32;2.60;;;;;;;21.05;54.65;98919.97;5092091;28;20605;-63
2022/05/22 00:04:20;;;;;;;3.33;3.03;;;;;;;21.10;54.27;98930.16;5091868;28;20210;-63
2022/05/22 00:06:47;;;;;;;3.17;2.83;;;;;;;21.06;54.23;98923.44;5092111;28;20195;-56
2022/05/22 00:09:14;;;;;;;4.40;3.33;;;;;;;20.99;53.86;98904.66;5091769;28;20199;-55
2022/05/22 00:11:41;;;;;;;4.72;3.05;;;;;;;21.08;54.31;98921.53;5091757;28;20206;-64
2022/05/22 00:14:11;;;;;;;4.13;3.33;;;;;;;21.10;54.28;98920.44;5091829;28;20286;-56
2022/05/22 00:16:40;;;;;;;3.78;3.47;;;;;;;21.13;54.43;98917.53;5088853;28;20206;-56
2022/05/22 00:19:11;;;;;;;3.45;3.15;;;;;;;21.04;54.69;98910.38;5091500;28;20210;-56
2022/05/22 00:21:38;;;;;;;4.00;3.22;;;;;;;21.08;54.89;98913.63;5091467;28;20235;-55
2022/05/22 00:24:07;;;;;;;5.20;3.42;;;;;;;21.09;55.08;98910.84;5091443;28;20740;-56
2022/05/22 00:26:34;;;;;;;4.00;3.60;;;;;;;21.05;55.53;98908.59;5091460;28;20202;-56
2022/05/22 00:29:01;;;;;;;5.57;3.40;;;;;;;21.02;55.90;98914.94;5091476;28;20197;-57
2022/05/22 00:31:28;;;;;;;3.95;3.65;;;;;;;21.08;55.82;98913.63;5090894;28;20191;-55
2022/05/22 00:33:56;;;;;;;4.78;3.20;;;;;;;21.05;56.19;98908.59;5091260;28;20254;-56
2022/05/22 00:36:24;;;;;;;6.07;3.65;;;;;;;20.96;56.63;98908.38;5091394;28;20274;-55
2022/05/22 00:38:51;;;;;;;3.92;3.50;;;;;;;20.93;56.72;98892.78;5091171;28;20287;-55
2022/05/22 00:41:19;;;;;;;10.68;4.13;;;;;;;20.95;57.05;98892.66;5091339;28;20615;-56
2022/05/22 00:43:49;;;;;;;4.70;3.17;;;;;;;20.95;57.33;98893.50;5091060;28;20203;-55
2022/05/22 00:46:18;;;;;;;3.50;3.20;;;;;;;20.98;57.56;98898.53;5091065;28;20241;-55
2022/05/22 00:48:47;;;;;;;4.95;3.30;;;;;;;21.05;57.71;98898.03;5091304;28;20288;-55
2022/05/22 00:51:18;;;;;;;6.38;3.78;;;;;;;21.19;58.02;98892.50;5090990;28;20242;-54
2022/05/22 00:53:50;;;;;;;5.43;3.13;;;;;;;21.21;58.93;98895.84;5090840;28;20195;-56
2022/05/22 00:56:21;;;;;;;3.38;3.17;;;;;;;21.27;59.63;98887.41;5090873;28;20298;-62
2022/05/22 00:58:50;;;;;;;4.15;3.40;;;;;;;21.33;60.21;98892.22;5090730;28;20202;-63
2022/05/22 01:01:17;;;;;;;3.40;2.97;;;;;;;21.39;60.31;98883.75;5090599;28;20225;-61
2022/05/22 01:03:45;;;;;;;4.57;3.38;;;;;;;21.40;60.21;98888.09;5090841;28;20199;-62
2022/05/22 01:06:20;;;;;;;5.80;3.40;;;;;;;21.46;60.18;98898.13;5090454;28;20205;-55
2022/05/22 01:08:48;;;;;;;3.33;3.00;;;;;;;21.46;60.25;98887.56;5090759;28;20636;-55
2022/05/22 01:11:18;;;;;;;3.38;3.17;;;;;;;21.43;60.29;98879.91;5090551;28;20200;-61
2022/05/22 01:13:46;;;;;;;3.53;3.22;;;;;;;21.41;61.36;98873.91;5090723;28;20202;-63
2022/05/22 01:16:14;;;;;;;4.47;3.20;;;;;;;21.33;60.69;98873.72;5090558;28;20199;-64
2022/05/22 01:18:43;;;;;;;4.55;3.20;;;;;;;21.36;60.70;98868.16;5090646;28;20298;-62
2022/05/22 01:21:13;;;;;;;3.50;3.30;;;;;;;21.36;60.42;98876.94;5090179;28;20219;-64
2022/05/22 01:23:42;;;;;;;3.88;3.15;;;;;;;21.38;60.24;98863.59;5090411;28;20199;-63
2022/05/22 01:26:09;;;;;;;3.70;3.33;;;;;;;21.46;59.86;98865.59;5090093;28;20199;-55
2022/05/22 01:28:37;;;;;;;3.63;3.33;;;;;;;21.40;60.04;98869.59;5090532;28;20195;-55
2022/05/22 01:31:04;;;;;;;3.90;3.00;;;;;;;21.32;59.96;98858.84;5090130;28;20206;-55
2022/05/22 01:33:33;;;;;;;3.58;3.22;;;;;;;21.43;59.71;98858.78;5090349;28;20205;-55
2022/05/22 01:36:00;;;;;;;4.00;3.35;;;;;;;21.48;59.63;98861.88;5090117;28;20196;-55
2022/05/22 01:38:27;;;;;;;4.70;3.30;;;;;;;21.45;59.51;98845.44;5090169;28;20241;-56
2022/05/22 01:40:56;;;;;;;3.92;3.50;;;;;;;21.50;59.70;98862.59;5090225;28;20372;-55
2022/05/22 01:43:23;;;;;;;7.93;3.92;;;;;;;21.48;59.73;98853.09;5089436;28;20199;-55
2022/05/22 01:45:50;;;;;;;4.00;3.17;;;;;;;21.40;60.08;98852.91;5089829;28;20235;-54
2022/05/22 01:48:17;;;;;;;3.78;3.47;;;;;;;21.45;59.95;98859.47;5090116;28;20199;-54
2022/05/22 01:50:46;;;;;;;4.82;3.20;;;;;;;21.51;59.86;98855.50;5089897;28;20215;-54
2022/05/22 01:53:13;;;;;;;3.88;3.50;;;;;;;21.58;59.68;98854.84;5089886;28;20595;-55
2022/05/22 01:55:41;;;;;;;3.55;3.33;;;;;;;21.53;60.16;98862.34;5090232;28;20202;-54
2022/05/22 01:58:10;;;;;;;5.10;3.50;;;;;;;21.54;62.67;98860.53;5090267;28;20580;-54
2022/05/22 02:00:38;;;;;;;5.60;3.70;;;;;;;21.56;64.91;98856.78;5089948;28;20192;-56
2022/05/22 02:03:06;;;;;;;4.47;3.70;;;;;;;21.51;66.97;98863.41;5089752;28;20219;-55
2022/05/22 02:05:33;;;;;;;5.80;3.78;;;;;;;21.48;67.42;98859.22;5089925;28;20195;-55
2022/05/22 02:10:44;;;;;;;4.00;3.70;;;;;;;21.51;67.34;98864.25;5089849;28;20194;-55
2022/05/22 02:13:13;;;;;;;5.82;3.55;;;;;;;21.53;67.80;98866.78;5089667;28;20647;-56
2022/05/22 02:15:39;;;;;;;4.15;3.75;;;;;;;21.46;68.00;98862.94;5089609;28;20195;-63
2022/05/22 02:18:07;;;;;;;3.70;3.40;;;;;;;21.52;67.94;98863.28;5089629;28;20217;-64
2022/05/22 02:20:33;;;;;;;3.92;3.50;;;;;;;21.50;67.72;98867.03;5089813;28;20195;-62
2022/05/22 02:23:00;;;;;;;3.67;3.42;;;;;;;21.56;66.96;98866.50;5089510;28;20223;-62
2022/05/22 02:25:30;;;;;;;4.80;3.35;;;;;;;21.57;66.17;98863.72;5089719;28;20207;-63
2022/05/22 02:27:58;;;;;;;4.95;3.80;;;;;;;21.54;65.62;98865.81;5089654;28;20198;-61
2022/05/22 02:30:29;;;;;;;8.15;4.07;;;;;;;21.54;65.32;98868.44;5089625;28;20198;-62
2022/05/22 02:32:56;;;;;;;3.75;3.45;;;;;;;21.48;64.74;98858.38;5089919;28;20191;-56
2022/05/22 02:35:23;;;;;;;3.88;3.67;;;;;;;21.54;63.91;98864.00;5089642;28;20196;-54
2022/05/22 02:37:52;;;;;;;4.60;4.18;;;;;;;21.52;64.63;98860.66;5089597;28;20211;-55
2022/05/22 02:40:23;;;;;;;4.03;3.72;;;;;;;21.52;64.22;98865.94;5089758;28;20199;-54
2022/05/22 02:42:51;;;;;;;5.22;3.90;;;;;;;21.51;64.32;98866.91;5089379;28;20233;-55
2022/05/22 02:45:20;;;;;;;4.45;4.05;;;;;;;21.51;64.98;98853.69;5089315;28;20227;-63
2022/05/22 02:47:49;;;;;;;4.15;3.92;;;;;;;21.48;63.84;98855.75;5089740;28;20267;-64
2022/05/22 02:50:20;;;;;;;4.10;3.70;;;;;;;21.52;63.96;98855.38;5089267;28;20195;-64
2022/05/22 02:52:46;;;;;;;4.15;3.70;;;;;;;21.58;63.43;98852.19;5089698;28;20230;-56
2022/05/22 02:55:13;;;;;;;4.43;4.13;;;;;;;21.57;63.48;98852.31;5092316;28;20210;-54
2022/05/22 02:57:41;;;;;;;4.28;4.05;;;;;;;21.56;63.38;98856.78;5092915;28;20203;-56
2022/05/22 03:00:11;;;;;;;4.57;4.20;;;;;;;21.58;63.19;98856.66;5093143;28;20671;-56
2022/05/22 03:02:38;;;;;;;4.43;4.10;;;;;;;21.62;62.79;98861.56;5093075;28;20599;-54
2022/05/22 03:05:08;;;;;;;4.80;4.40;;;;;;;21.66;62.81;98857.69;5093476;28;20282;-56
2022/05/22 03:07:36;;;;;;;4.78;4.38;;;;;;;21.67;63.19;98866.47;5093022;28;20203;-54
2022/05/22 03:10:04;;;;;;;5.25;4.80;;;;;;;21.73;62.76;98865.91;5092935;28;20195;-55
2022/05/22 03:12:31;;;;;;;4.32;4.03;;;;;;;21.79;62.71;98873.31;5092759;28;20305;-55
2022/05/22 03:14:59;;;;;;;4.47;4.07;;;;;;;21.85;62.53;98861.41;5092618;28;20299;-54
2022/05/22 03:17:26;;;;;;;4.43;4.03;;;;;;;21.90;62.40;98864.47;5092883;28;20191;-55
2022/05/22 03:19:54;;;;;;;6.05;4.30;;;;;;;21.89;62.53;98868.94;5092804;28;20392;-64
2022/05/22 03:22:22;;;;;;;4.45;4.05;;;;;;;21.94;62.33;98873.81;5092562;28;20221;-55
2022/05/22 03:24:49;;;;;;;4.90;4.50;;;;;;;21.97;61.78;98865.63;5092543;28;20203;-56
2022/05/22 03:27:19;;;;;;;5.40;4.55;;;;;;;22.12;61.87;98877.56;5092357;28;20290;-55
2022/05/22 03:29:47;;;;;;;5.35;4.85;;;;;;;22.15;61.61;98874.63;5088619;28;20204;-55
2022/05/22 03:32:14;;;;;;;5.95;4.65;;;;;;;22.16;61.86;98878.13;5088593;28;20201;-56
2022/05/22 03:34:42;;;;;;;4.90;4.50;;;;;;;22.18;61.77;98868.25;5088570;28;20198;-55
2022/05/22 03:37:09;;;;;;;5.72;4.43;;;;;;;22.25;62.86;98870.22;5091015;28;20582;-54
2022/05/22 03:39:38;;;;;;;5.30;4.60;;;;;;;22.31;62.29;98874.16;5090901;28;20195;-55
2022/05/22 03:42:06;;;;;;;5.55;4.93;;;;;;;22.32;62.09;98881.97;5091087;28;20221;-53
2022/05/22 03:44:33;;;;;;;4.95;4.50;;;;;;;22.39;62.49;98882.25;5090988;28;20253;-54
2022/05/22 03:47:00;;;;;;;4.72;4.43;;;;;;;22.44;62.23;98885.34;5087901;28;20278;-54
2022/05/22 03:49:27;;;;;;;8.68;5.00;;;;;;;22.48;62.24;98888.53;5091483;28;20195;-65
2022/05/22 03:51:54;;;;;;;6.43;5.50;;;;;;;22.43;62.31;98884.50;5092218;28;20198;-63
2022/05/22 03:54:21;;;;;;;5.57;5.03;;;;;;;22.46;61.94;98876.28;5092060;28;20199;-63
2022/05/22 03:56:49;;;;;;;5.20;4.40;;;;;;;22.48;60.96;98880.59;5092066;28;20195;-64
2022/05/22 03:59:16;;;;;;;5.10;4.63;;;;;;;22.51;60.96;98875.06;5091369;28;20199;-63
2022/05/22 04:01:43;;;;;;;5.40;5.00;;;;;;;22.51;60.71;98880.34;5087979;28;20223;-63
2022/05/22 04:04:10;;;;;;;8.40;4.88;;;;;;;22.59;60.03;98881.34;5090239;28;20207;-65
2022/05/22 04:06:37;;;;;;;5.65;5.05;;;;;;;22.72;59.60;98889.88;5089314;28;20203;-62
2022/05/22 04:09:04;;;;;;;4.93;4.60;;;;;;;22.77;59.20;98886.84;5089859;28;20688;-63
2022/05/22 04:11:31;;;;;;;5.90;4.90;;;;;;;22.78;59.21;98893.81;5089799;28;20200;-55
2022/05/22 04:13:59;;;;;;;5.32;4.70;;;;;;;22.73;59.30;98896.00;5090473;28;20211;-54
2022/05/22 04:16:26;;;;;;;5.25;4.75;;;;;;;22.70;59.01;98899.72;5087819;28;20207;-64
2022/05/22 04:18:53;;;;;;;5.40;4.75;;;;;;;22.71;58.98;98898.78;5079088;28;20212;-64
2022/05/22 04:21:20;;;;;;;5.15;4.75;;;;;;;22.71;58.98;98901.41;5079907;28;20212;-63
2022/05/22 04:26:32;;;;;;;6.72;5.05;;;;;;;22.84;58.21;98898.56;5090096;28;20752;-56
2022/05/22 04:29:01;;;;;;;9.23;4.10;;;;;;;22.83;57.99;98901.31;5090263;28;20230;-57
2022/05/22 04:31:28;;;;;;;4.72;4.43;;;;;;;22.79;57.49;98901.63;5089893;28;20199;-56
2022/05/22 04:33:55;;;;;;;5.53;5.13;;;;;;;22.88;57.08;98899.97;5088667;28;20210;-57
2022/05/22 04:36:22;;;;;;;4.88;4.38;;;;;;;22.90;56.96;98905.97;5091279;28;20201;-59
2022/05/22 04:38:49;;;;;;;5.88;4.72;;;;;;;22.92;56.87;98906.63;5091151;28;20199;-63
2022/05/22 04:41:17;;;;;;;6.03;4.15;;;;;;;22.94;56.56;98904.69;5091193;28;20199;-62
2022/05/22 04:43:44;;;;;;;5.30;4.35;;;;;;;23.03;56.51;98913.63;5091087;28;20219;-64
2022/05/22 04:46:12;;;;;;;4.80;4.40;;;;;;;23.17;55.84;98915.88;5090889;28;20230;-55
2022/05/22 04:48:39;;;;;;;5.40;4.30;;;;;;;23.26;54.92;98915.03;5091180;28;20296;-62
2022/05/22 04:51:06;;;;;;;6.53;4.53;;;;;;;23.40;54.29;98916.44;5090851;28;20195;-62
2022/05/22 04:53:33;;;;;;;5.68;4.20;;;;;;;23.64;53.24;98916.88;5091150;28;20217;-63
2022/05/22 04:56:00;;;;;;;4.95;4.65;;;;;;;23.75;52.53;98916.72;5090726;28;20199;-63
2022/05/22 04:58:27;;;;;;;4.18;3.88;;;;;;;23.82;51.92;98920.47;5090849;28;20198;-62
2022/05/22 05:00:55;;;;;;;6.82;4.30;;;;;;;23.87;51.44;98920.03;5090677;28;20641;-63
2022/05/22 05:03:23;;;;;;;6.10;3.90;;;;;;;24.01;50.94;98922.25;5090769;28;20311;-53
2022/05/22 05:05:56;;;;;;;5.53;4.45;;;;;;;24.14;50.45;98928.09;5089980;28;20559;-54
2022/05/22 05:08:23;;;;;;;4.55;4.18;;;;;;;24.29;50.03;98931.13;5090751;28;20667;-54
2022/05/22 05:10:51;;;;;;;4.45;4.03;;;;;;;24.34;50.10;98933.34;5090585;28;20202;-55
2022/05/22 05:13:18;;;;;;;4.72;4.32;;;;;;;24.43;50.17;98933.31;5090602;28;20195;-54
2022/05/22 05:15:45;;;;;;;5.07;4.22;;;;;;;24.49;50.02;98930.06;5090564;28;20195;-55
2022/05/22 05:18:13;;;;;;;4.95;4.50;;;;;;;24.43;50.07;98922.69;5090532;28;20637;-61
2022/05/22 05:20:47;;;;;;;4.10;3.80;;;;;;;24.58;49.56;98931.84;5090597;28;20282;-55
2022/05/22 05:23:14;;;;;;;4.57;4.15;;;;;;;24.99;48.67;98919.06;5090293;28;20606;-55
2022/05/22 05:25:41;;;;;;;13.07;7.72;;;;;;;25.18;47.91;98916.25;5089796;28;20584;-63
2022/05/22 05:28:08;;;;;;;7.22;5.47;;;;;;;25.39;47.26;98923.13;5082755;28;20196;-65
2022/05/22 05:30:35;;;;;;;4.95;4.00;;;;;;;25.45;46.87;98919.84;5088912;28;20618;-64
2022/05/22 05:33:03;;;;;;;5.78;5.28;;;;;;;25.40;46.74;98922.09;5088304;28;20318;-63
2022/05/22 05:35:31;;;;;;;5.78;4.20;;;;;;;25.31;46.77;98913.22;5089141;28;20256;-64
2022/05/22 05:37:59;;;;;;;5.28;4.15;;;;;;;25.45;46.51;98919.84;5090129;28;20580;-64
2022/05/22 05:40:26;;;;;;;5.68;4.47;;;;;;;25.45;46.42;98918.03;5090168;28;20586;-55
2022/05/22 05:42:53;;;;;;;4.50;4.20;;;;;;;25.84;45.59;98918.53;5090281;28;20242;-55
2022/05/22 05:45:21;;;;;;;4.20;3.65;;;;;;;27.92;41.41;98910.72;5089999;28;20266;-55
2022/05/22 05:47:49;;;;;;;3.90;3.70;;;;;;;30.45;36.45;98919.69;5090087;28;20201;-54
2022/05/22 05:50:20;;;;;;;7.10;4.22;;;;;;;32.80;32.66;98918.59;5089091;28;20651;-55
2022/05/22 05:52:47;;;;;;;7.15;4.10;;;;;;;34.87;29.56;98917.38;5088632;28;20626;-55
2022/05/22 05:55:16;;;;;;;7.43;4.38;;;;;;;36.41;28.01;98922.25;5088829;28;20306;-55
2022/05/22 05:57:43;;;;;;;4.22;3.92;;;;;;;36.73;26.97;98931.88;5088592;28;20191;-55
2022/05/22 06:00:13;;;;;;;5.07;3.80;;;;;;;36.33;27.37;98935.03;5088498;28;20187;-54
2022/05/22 06:02:40;;;;;;;3.97;3.70;;;;;;;36.66;26.50;98923.84;5086552;28;20237;-54
2022/05/22 06:05:07;;;;;;;4.10;3.60;;;;;;;37.28;25.32;98929.94;5088586;28;20739;-55
2022/05/22 06:07:34;;;;;;;4.53;3.40;;;;;;;38.15;24.69;98927.53;5088366;28;20195;-55
2022/05/22 06:10:01;;;;;;;4.28;3.30;;;;;;;38.32;24.40;98933.03;5085898;28;20200;-55
2022/05/22 06:12:29;;;;;;;3.22;3.00;;;;;;;38.05;23.67;98929.94;5088549;28;20195;-56
2022/05/22 06:14:56;;;;;;;3.95;3.65;;;;;;;37.75;24.06;98938.19;5088598;28;20229;-57
2022/05/22 06:17:30;;;;;;;10.23;3.83;;;;;;;37.02;24.18;98938.41;5088665;28;20198;-54
2022/05/22 06:19:57;;;;;;;11.73;2.92;;;;;;;36.79;24.58;98943.69;5088091;28;20210;-64
2022/05/22 06:22:25;;;;;;;4.10;2.95;;;;;;;36.61;24.58;98939.06;5088645;28;20199;-55
2022/05/22 06:24:53;;;;;;;7.43;3.17;;;;;;;36.51;25.10;98920.69;5088233;28;20199;-53
2022/05/22 06:27:20;;;;;;;5.30;3.65;;;;;;;37.60;24.87;98946.72;5089003;28;20352;-54
2022/05/22 06:29:49;;;;;;;3.33;3.03;;;;;;;37.97;24.28;98952.00;5091329;28;20191;-55
2022/05/22 06:32:18;;;;;;;6.28;3.10;;;;;;;38.47;23.46;98953.19;5092666;28;20205;-54
2022/05/22 06:34:47;;;;;;;6.30;3.30;;;;;;;38.30;23.45;98952.25;5092729;28;20195;-54
2022/05/22 06:37:15;;;;;;;3.40;3.10;;;;;;;38.02;22.55;98952.94;5092901;28;20648;-54
2022/05/22 06:39:50;;;;;;;2.42;2.20;;;;;;;37.75;23.06;98946.31;5092819;28;20287;-53
2022/05/22 06:42:23;;;;;;;3.42;3.13;;;;;;;36.92;23.46;98940.78;5092696;28;20205;-53
2022/05/22 06:45:00;;;;;;;3.28;2.40;;;;;;;35.70;24.39;98942.41;5093257;28;20271;-54
2022/05/22 06:47:30;;;;;;;3.08;2.75;;;;;;;34.36;25.13;98933.47;5093572;28;20198;-59
2022/05/22 06:49:57;;;;;;;3.20;2.95;;;;;;;33.37;26.72;98942.34;5093337;28;20202;-58
2022/05/22 06:52:24;;;;;;;4.55;3.65;;;;;;;32.47;28.13;98954.16;5093829;28;20199;-59
2022/05/22 06:54:51;;;;;;;6.13;3.05;;;;;;;31.87;28.56;98935.94;5092777;28;20196;-59
2022/05/22 06:57:21;;;;;;;4.70;3.13;;;;;;;31.18;29.34;98927.63;5092425;28;20199;-65
2022/05/22 06:59:49;;;;;;;3.38;2.40;;;;;;;30.82;29.79;98930.28;5091978;28;20199;-57
2022/05/22 07:02:18;;;;;;;3.47;2.85;;;;;;;30.17;31.18;98936.38;5093084;28;20197;-57
2022/05/22 07:04:45;;;;;;;5.15;3.25;;;;;;;29.98;31.91;98936.91;5093113;28;20306;-57
2022/05/22 07:07:12;;;;;;;3.70;3.40;;;;;;;29.65;32.48;98946.22;5092261;28;20191;-56
2022/05/22 07:09:39;;;;;;;3.00;2.60;;;;;;;29.24;32.02;98925.06;5092130;28;20652;-64
2022/05/22 07:12:11;;;;;;;2.70;2.60;;;;;;;29.17;32.32;98946.34;5092703;28;20187;-64
2022/05/22 07:14:39;;;;;;;6.28;2.80;;;;;;;28.82;31.84;98950.38;5093212;28;20199;-66
2022/05/22 07:17:07;;;;;;;2.47;2.38;;;;;;;28.53;32.88;98948.31;5092601;28;20192;-57
2022/05/22 07:19:37;;;;;;;3.15;2.45;;;;;;;28.36;34.50;98951.16;5092653;28;20202;-57
2022/05/22 07:22:05;;;;;;;3.28;2.63;;;;;;;28.17;33.74;98941.69;5092606;28;20199;-56
2022/05/22 07:24:32;;;;;;;7.43;3.08;;;;;;;28.04;34.05;98936.03;5092551;28;20229;-56
2022/05/22 07:26:59;;;;;;;8.38;3.17;;;;;;;27.74;34.84;98942.91;5092468;28;20207;-57
2022/05/22 07:29:26;;;;;;;4.43;2.80;;;;;;;27.65;35.06;98941.25;5092789;28;20649;-56
2022/05/22 07:31:54;;;;;;;3.47;2.90;;;;;;;27.75;35.11;98937.41;5092577;28;20196;-57
2022/05/22 07:34:21;;;;;;;7.30;3.00;;;;;;;27.80;35.40;98931.56;5092595;28;20195;-56
2022/05/22 07:36:54;;;;;;;4.10;2.72;;;;;;;28.04;35.35;98933.38;5092471;28;20198;-57
2022/05/22 07:39:21;;;;;;;3.90;2.75;;;;;;;28.99;34.42;98936.94;5092233;28;20201;-63
2022/05/22 07:41:48;;;;;;;2.85;2.72;;;;;;;29.57;33.00;98931.88;5091507;28;20578;-64
2022/05/22 07:44:15;;;;;;;3.17;2.72;;;;;;;29.97;32.89;98927.22;5092082;28;20254;-65
2022/05/22 07:46:42;;;;;;;4.43;3.30;;;;;;;30.02;32.86;98932.03;5092358;28;20592;-65
2022/05/22 07:50:16;;;;;;;3.40;2.95;;;;;;;29.87;33.00;98930.13;5092034;28;20191;-56
2022/05/22 07:51:58;;;;;;;4.68;3.33;;;;;;;29.49;33.02;98918.56;5092029;28;20321;-55
2022/05/22 07:54:24;;;;;;;3.40;3.10;;;;;;;29.40;33.41;98919.66;5092340;28;20196;-56
2022/05/22 07:56:51;;;;;;;2.80;2.60;;;;;;;29.44;33.46;98912.13;5091930;28;20191;-57
2022/05/22 07:59:18;;;;;;;6.32;2.65;;;;;;;29.53;33.03;98924.41;5091928;28;20286;-56
2022/05/22 08:01:45;;;;;;;6.57;2.60;;;;;;;29.98;32.96;98910.16;5092151;28;20227;-57
2022/05/22 08:04:12;;;;;;;6.10;3.25;;;;;;;30.18;31.96;98907.75;5091551;28;20613;-56
2022/05/22 08:06:39;;;;;;;5.00;2.53;;;;;;;30.10;32.30;98914.03;5092003;28;20282;-57
2022/05/22 08:09:07;;;;;;;3.28;2.55;;;;;;;29.88;32.28;98909.56;5091593;28;20191;-56
2022/05/22 08:11:34;;;;;;;6.07;3.15;;;;;;;29.94;32.45;98906.97;5091773;28;20196;-57
2022/05/22 08:14:01;;;;;;;2.53;2.40;;;;;;;30.13;32.71;98902.16;5091648;28;20278;-57
2022/05/22 08:16:28;;;;;;;3.10;2.85;;;;;;;30.15;32.52;98897.41;5091355;28;20571;-56
2022/05/22 08:18:55;;;;;;;2.10;2.00;;;;;;;29.97;31.95;98895.09;5091458;28;20253;-57
2022/05/22 08:21:22;;;;;;;7.25;2.80;;;;;;;29.86;31.88;98903.56;5091344;28;20205;-56
2022/05/22 08:23:50;;;;;;;4.70;2.33;;;;;;;29.65;31.64;98895.38;5091370;28;20223;-56
2022/05/22 08:26:18;;;;;;;2.40;2.20;;;;;;;29.47;31.35;98901.88;5091608;28;20199;-64
2022/05/22 08:28:45;;;;;;;4.93;2.17;;;;;;;29.49;31.50;98907.88;5091223;28;20657;-64
2022/05/22 08:31:12;;;;;;;10.25;3.72;;;;;;;29.65;31.53;98893.53;5090903;28;20203;-64
2022/05/22 08:33:39;;;;;;;7.20;2.22;;;;;;;29.61;30.47;98898.41;5083958;28;20516;-64
2022/05/22 08:36:06;;;;;;;7.97;2.88;;;;;;;29.55;30.77;98901.81;5089679;28;20191;-56
2022/05/22 08:38:33;;;;;;;7.93;2.70;;;;;;;29.43;30.58;98897.91;5089899;28;20274;-56
2022/05/22 08:41:10;;;;;;;4.43;2.20;;;;;;;29.38;31.12;98894.09;5089600;28;20197;-56
2022/05/22 08:43:45;;;;;;;6.40;2.38;;;;;;;29.21;31.28;98877.34;5087778;28;20215;-56
2022/05/22 08:46:15;;;;;;;5.00;2.22;;;;;;;29.07;30.71;98894.13;5090630;28;20279;-56
2022/05/22 08:48:48;;;;;;;4.25;3.03;;;;;;;29.19;30.79;98872.16;5089891;28;20196;-56
2022/05/22 08:51:21;;;;;;;2.88;2.15;;;;;;;29.50;30.43;98876.63;5089191;28;20198;-56
2022/05/22 08:53:53;;;;;;;6.03;2.20;;;;;;;29.90;30.16;98875.44;5089498;28;20194;-56
2022/05/22 08:59:20;;;;;;;3.88;2.15;;;;;;;31.15;28.47;98870.91;5087336;28;20194;-65
2022/05/22 09:01:52;;;;;;;5.30;2.67;;;;;;;31.14;28.16;98871.91;5087435;28;20207;-64
2022/05/22 09:04:30;;;;;;;8.07;2.10;;;;;;;31.12;28.15;98866.75;5090279;28;20219;-65
2022/05/22 09:07:05;;;;;;;7.47;4.53;;;;;;;31.03;28.66;98870.53;5086902;28;20654;-65
2022/05/22 09:09:36;;;;;;;6.68;2.25;;;;;;;30.88;28.03;98869.75;5089379;28;20667;-57
2022/05/22 09:12:19;;;;;;;2.70;2.30;;;;;;;30.80;28.55;98870.72;5089055;28;20199;-57
2022/05/22 09:15:02;;;;;;;3.75;2.42;;;;;;;30.99;28.28;98877.28;5089442;28;20734;-57
2022/05/22 09:17:36;;;;;;;2.08;1.83;;;;;;;31.37;27.33;98878.75;5089612;28;20267;-57
2022/05/22 09:20:16;;;;;;;3.90;2.58;;;;;;;31.48;27.34;98847.91;5090560;28;20725;-58
2022/05/22 09:23:03;;;;;;;4.80;2.40;;;;;;;31.73;26.73;98862.53;5090585;28;20191;-57
2022/05/22 09:25:43;;;;;;;2.88;2.63;;;;;;;31.79;26.81;98855.59;5090343;28;20284;-57
2022/05/22 09:28:21;;;;;;;2.72;2.50;;;;;;;31.72;26.92;98849.31;5090251;28;20191;-57
2022/05/22 09:30:58;;;;;;;2.67;1.70;;;;;;;31.85;26.83;98844.06;5090479;28;20195;-57
2022/05/22 09:33:35;;;;;;;3.38;2.00;;;;;;;31.95;26.09;98844.53;5090446;28;20201;-58
2022/05/22 09:36:14;;;;;;;5.82;2.78;;;;;;;32.43;25.97;98848.13;5090154;28;20316;-56
2022/05/22 09:38:58;;;;;;;3.80;2.20;;;;;;;32.45;26.42;98838.00;5090038;28;20192;-56
2022/05/22 09:41:38;;;;;;;6.20;2.30;;;;;;;32.40;26.65;98826.19;5090272;28;20213;-58
2022/05/22 09:44:26;;;;;;;4.25;2.63;;;;;;;32.34;26.73;98832.38;5090203;28;20305;-57
2022/05/22 09:47:25;;;;;;;4.18;2.00;;;;;;;32.60;26.05;98819.06;5090357;28;20202;-56
2022/05/22 09:50:10;;;;;;;2.40;2.22;;;;;;;32.43;25.47;98826.63;5090285;28;20202;-57
2022/05/22 09:52:49;;;;;;;2.30;1.88;;;;;;;32.46;26.18;98820.84;5089510;28;20199;-57
2022/05/22 09:55:32;;;;;;;9.45;2.30;;;;;;;32.35;26.66;98818.75;5090263;28;20221;-57
2022/05/22 09:58:12;;;;;;;2.75;2.55;;;;;;;32.10;26.04;98812.19;5089960;28;20192;-57
2022/05/22 10:00:46;;;;;;;5.65;2.65;;;;;;;32.23;26.29;98814.16;5089947;28;20190;-57
2022/05/22 10:03:25;;;;;;;2.72;1.90;;;;;;;32.27;26.10;98818.94;5089986;28;20199;-58
2022/05/22 10:06:00;;;;;;;4.25;2.50;;;;;;;31.99;26.26;98829.69;5094480;28;20601;-57
2022/05/22 10:08:38;;;;;;;2.58;2.25;;;;;;;31.67;26.85;98814.22;5093522;28;20199;-59
2022/05/22 10:11:12;;;;;;;5.15;2.25;;;;;;;31.71;26.92;98829.75;5093093;28;20195;-57
2022/05/22 10:13:53;;;;;;;4.75;3.28;;;;;;;31.47;27.56;98835.50;5093644;28;20203;-57
2022/05/22 10:16:29;;;;;;;4.95;2.90;;;;;;;31.03;28.08;98822.28;5093777;28;20191;-64
2022/05/22 10:19:10;;;;;;;5.57;2.30;;;;;;;30.92;27.98;98829.00;5094081;28;20253;-56
2022/05/22 10:21:48;;;;;;;8.80;1.95;;;;;;;30.79;27.76;98836.91;5093809;28;20662;-57
2022/05/22 10:24:41;;;;;;;3.92;2.30;;;;;;;30.71;28.57;98820.91;5091164;28;20215;-58
2022/05/22 10:27:28;;;;;;;5.93;2.25;;;;;;;30.74;28.97;98823.22;5090663;28;20192;-56
2022/05/22 10:30:00;;;;;;;7.18;2.20;;;;;;;30.94;29.44;98818.06;5092067;28;20269;-57
2022/05/22 10:32:32;;;;;;;3.00;2.40;;;;;;;31.28;29.00;98812.84;5093907;28;20196;-55
2022/05/22 10:35:06;;;;;;;9.23;7.57;;;;;;;31.02;29.75;98808.06;5093646;28;20199;-57
2022/05/22 10:37:38;;;;;;;7.00;4.90;;;;;;;31.29;29.17;98811.81;5093729;28;20286;-58
2022/05/22 10:40:07;;;;;;;11.55;2.50;;;;;;;31.21;27.91;98803.09;5093321;28;20191;-58
2022/05/22 10:42:46;;;;;;;5.07;2.97;;;;;;;31.29;27.16;98819.88;5092327;28;20195;-58
2022/05/22 10:45:21;;;;;;;5.22;3.00;;;;;;;31.08;26.87;98819.84;5091840;28;20284;-58
2022/05/22 10:47:49;;;;;;;6.13;2.40;;;;;;;30.96;26.25;98799.94;5093290;28;20203;-57
2022/05/22 10:50:24;;;;;;;7.40;2.45;;;;;;;31.26;26.27;98814.09;5093231;28;20198;-58
2022/05/22 10:52:52;;;;;;;5.68;2.10;;;;;;;31.44;26.48;98809.06;5093251;28;20671;-58
2022/05/22 10:55:32;;;;;;;2.47;2.38;;;;;;;31.39;25.78;98784.66;5093267;28;20420;-57
2022/05/22 10:58:01;;;;;;;2.78;2.58;;;;;;;31.61;26.03;98802.38;5093052;28;20195;-57
2022/05/22 11:00:29;;;;;;;3.40;3.10;;;;;;;31.69;26.56;98799.59;5093372;28;20685;-57
2022/05/22 11:02:56;;;;;;;4.00;2.10;;;;;;;31.62;26.43;98792.47;5093116;28;20286;-58
2022/05/22 11:05:27;;;;;;;2.75;2.55;;;;;;;31.56;26.54;98790.56;5092867;28;20226;-57
2022/05/22 11:07:56;;;;;;;2.45;2.25;;;;;;;31.35;27.00;98780.72;5092903;28;20192;-58
2022/05/22 11:10:26;;;;;;;4.03;3.72;;;;;;;31.20;27.10;98772.78;5093132;28;20226;-58
2022/05/22 11:13:03;;;;;;;5.70;4.35;;;;;;;31.18;27.62;98771.28;5093104;28;20221;-58
2022/05/22 11:15:32;;;;;;;2.97;2.75;;;;;;;31.06;28.81;98773.63;5092752;28;20202;-57
2022/05/22 11:18:06;;;;;;;2.42;2.22;;;;;;;31.12;29.65;98770.25;5092701;28;20191;-57
2022/05/22 11:20:35;;;;;;;5.03;4.72;;;;;;;31.22;29.76;98764.53;5092736;28;20195;-59
2022/05/22 11:23:13;;;;;;;3.30;2.58;;;;;;;31.23;28.15;98756.31;5092522;28;20195;-57
2022/05/22 11:25:50;;;;;;;2.88;2.67;;;;;;;30.96;27.96;98746.34;5092717;28;20225;-56
2022/05/22 11:28:31;;;;;;;4.55;2.55;;;;;;;30.71;28.02;98751.25;5092348;28;20203;-57
2022/05/22 11:31:13;;;;;;;4.32;1.98;;;;;;;30.55;28.08;98746.16;5092829;28;20675;-56
2022/05/22 11:33:53;;;;;;;11.23;2.90;;;;;;;30.52;28.59;98743.81;5092446;28;20202;-56
2022/05/22 11:36:46;;;;;;;8.98;2.80;;;;;;;30.26;29.21;98755.06;5092571;28;20685;-64
2022/05/22 11:39:27;;;;;;;2.38;2.13;;;;;;;30.25;29.52;98748.03;5092365;28;20197;-63
2022/05/22 11:41:57;;;;;;;3.50;2.40;;;;;;;30.22;29.81;98743.91;5091247;28;20199;-58
2022/05/22 11:45:07;;;;;;;4.53;2.70;;;;;;;30.29;29.71;98731.44;5091707;28;20230;-58
2022/05/22 11:47:58;;;;;;;3.30;2.50;;;;;;;30.38;29.22;98728.63;5029824;28;20197;-58
2022/05/22 11:50:34;;;;;;;3.25;2.78;;;;;;;30.46;29.77;98725.84;5029657;28;20193;-59
2022/05/22 11:53:21;;;;;;;3.15;2.92;;;;;;;30.51;30.25;98723.41;5076290;28;20202;-58
2022/05/22 11:56:03;;;;;;;3.38;2.60;;;;;;;30.44;30.38;98711.81;5091961;28;20191;-58
2022/05/22 11:58:35;;;;;;;3.05;2.72;;;;;;;30.33;30.50;98716.66;5092069;28;20294;-57